Time;durP1;ratioP1;P1;durP2;ratioP2;P2;SDS_P1;SDS_P2;PMS_P1;PMS_P2;Temp;Humidity;BMP_temperature;BMP_pressure;BME280_temperature;BME280_humidity;BME280_pressure;Samples;Min_cycle;Max_cycle;Signal;HPM_P1;HPM_P2
2023/06/21 00:00:31;;;;;;;15.07;13.57;;;20.50;99.90;;;;;;5056766;28;20688;-79
2023/06/21 00:02:59;;;;;;;15.15;13.75;;;19.90;99.90;;;;;;5045060;28;20663;-77
2023/06/21 00:05:25;;;;;;;15.65;14.05;;;20.00;99.90;;;;;;5070445;28;20047;-81
2023/06/21 00:07:54;;;;;;;14.52;13.07;;;20.00;99.90;;;;;;5043561;28;20060;-79
2023/06/21 00:10:24;;;;;;;15.57;13.68;;;20.20;99.90;;;;;;5042924;28;20481;-82
2023/06/21 00:12:51;;;;;;;16.58;14.88;;;20.50;99.90;;;;;;5047764;28;20043;-80
2023/06/21 00:15:17;;;;;;;17.10;15.40;;;20.10;99.90;;;;;;5045454;28;20386;-78
2023/06/21 00:17:43;;;;;;;17.13;15.57;;;20.50;99.90;;;;;;5032287;28;20044;-80
2023/06/21 00:20:10;;;;;;;17.02;15.30;;;20.20;99.90;;;;;;5065232;28;20040;-82
2023/06/21 00:22:37;;;;;;;16.42;14.82;;;19.90;99.90;;;;;;5057155;28;20682;-82
2023/06/21 00:25:03;;;;;;;16.55;14.95;;;20.30;99.90;;;;;;5054774;28;20484;-78
2023/06/21 00:27:29;;;;;;;17.40;15.70;;;20.40;99.90;;;;;;5050519;28;20048;-82
2023/06/21 00:29:55;;;;;;;19.38;16.40;;;20.40;99.90;;;;;;5071189;28;20044;-82
2023/06/21 00:32:20;;;;;;;17.67;15.90;;;20.60;99.90;;;;;;5068421;28;20437;-79
2023/06/21 00:34:47;;;;;;;18.77;16.83;;;20.10;99.90;;;;;;5048418;28;20426;-82
2023/06/21 00:37:13;;;;;;;19.65;17.77;;;20.60;99.90;;;;;;5067995;28;20401;-82
2023/06/21 00:39:39;;;;;;;18.33;16.55;;;20.60;99.90;;;;;;5052068;28;20044;-80
2023/06/21 00:42:09;;;;;;;16.38;14.82;;;19.90;99.90;;;;;;5034583;28;20052;-78
2023/06/21 00:44:35;;;;;;;17.65;15.95;;;20.50;99.90;;;;;;5056519;28;20036;-80
2023/06/21 00:47:01;;;;;;;17.75;16.13;;;19.90;99.90;;;;;;5071970;28;20040;-77
2023/06/21 00:49:29;;;;;;;17.98;16.23;;;20.40;99.90;;;;;;5090735;28;20036;-79
2023/06/21 00:51:58;;;;;;;19.50;17.38;;;20.40;99.90;;;;;;5057210;28;20064;-81
2023/06/21 00:54:29;;;;;;;19.23;17.33;;;19.90;99.90;;;;;;5042260;28;20068;-81
2023/06/21 00:56:58;;;;;;;19.10;17.10;;;20.50;99.90;;;;;;5041078;28;20052;-79
2023/06/21 00:59:28;;;;;;;19.27;17.33;;;19.80;99.90;;;;;;5060115;28;20036;-83
2023/06/21 01:02:03;;;;;;;19.77;17.77;;;20.50;99.90;;;;;;5051360;28;20037;-81
2023/06/21 01:04:31;;;;;;;19.58;17.65;;;19.90;99.90;;;;;;5051305;28;20058;-82
2023/06/21 01:07:17;;;;;;;19.48;17.52;;;20.40;99.90;;;;;;5060994;28;20075;-82
2023/06/21 01:10:09;;;;;;;20.20;18.20;;;20.30;99.90;;;;;;5044166;28;20047;-85
2023/06/21 01:13:13;;;;;;;20.48;18.23;;;20.30;99.90;;;;;;5087567;28;20127;-80
2023/06/21 01:15:53;;;;;;;20.58;18.48;;;19.80;99.90;;;;;;5049508;28;20417;-85
2023/06/21 01:18:26;;;;;;;21.17;18.92;;;19.90;99.90;;;;;;5064083;28;20040;-84
2023/06/21 01:20:54;;;;;;;21.38;19.17;;;20.30;99.90;;;;;;5055336;28;20067;-84
2023/06/21 01:23:26;;;;;;;19.55;17.58;;;20.00;99.90;;;;;;5052714;28;20052;-85
2023/06/21 01:26:16;;;;;;;20.52;18.52;;;20.30;99.90;;;;;;5064583;28;20117;-81
2023/06/21 01:29:10;;;;;;;22.13;19.73;;;20.00;99.90;;;;;;5049332;28;20121;-86
2023/06/21 01:31:42;;;;;;;21.23;18.97;;;19.90;99.90;;;;;;5056088;28;20090;-83
2023/06/21 01:34:12;;;;;;;19.70;17.70;;;20.10;99.90;;;;;;5095574;28;20045;-81
2023/06/21 01:36:39;;;;;;;20.35;18.23;;;20.20;99.90;;;;;;5055510;28;20063;-82
2023/06/21 01:39:09;;;;;;;19.40;17.35;;;20.00;99.90;;;;;;5050295;28;20131;-81
2023/06/21 01:41:39;;;;;;;20.67;18.65;;;20.00;99.90;;;;;;5069627;28;20036;-82
2023/06/21 01:44:09;;;;;;;20.83;18.70;;;20.20;99.90;;;;;;5060209;28;20051;-80
2023/06/21 01:46:35;;;;;;;20.75;18.38;;;20.60;99.90;;;;;;5053352;28;20045;-82
2023/06/21 01:49:08;;;;;;;19.85;17.85;;;20.70;99.90;;;;;;5055307;28;20033;-82
2023/06/21 01:51:38;;;;;;;22.08;18.95;;;20.20;99.90;;;;;;5045126;28;20603;-81
2023/06/21 01:54:04;;;;;;;20.98;18.77;;;20.50;99.90;;;;;;5091895;28;20033;-81
2023/06/21 01:56:31;;;;;;;20.60;18.40;;;20.50;99.90;;;;;;5064004;28;20082;-83
2023/06/21 01:58:56;;;;;;;20.95;18.83;;;19.90;99.90;;;;;;5038787;28;20512;-82
2023/06/21 02:01:27;;;;;;;20.58;18.38;;;20.60;99.90;;;;;;5036613;28;20044;-84
2023/06/21 02:03:56;;;;;;;22.77;18.88;;;20.20;99.90;;;;;;5055077;28;20072;-84
2023/06/21 02:06:26;;;;;;;20.65;18.42;;;20.40;99.90;;;;;;5048579;28;20044;-82
2023/06/21 02:08:53;;;;;;;21.27;19.02;;;20.40;99.90;;;;;;5052954;28;20036;-85
2023/06/21 02:11:19;;;;;;;23.15;20.65;;;20.40;99.90;;;;;;5067921;28;20033;-81
2023/06/21 02:13:48;;;;;;;22.17;19.83;;;20.10;99.90;;;;;;5069030;28;20037;-80
2023/06/21 02:16:15;;;;;;;24.35;19.58;;;19.90;99.90;;;;;;5058800;28;20088;-81
2023/06/21 02:18:41;;;;;;;23.58;19.63;;;20.50;99.90;;;;;;5058563;28;20037;-79
2023/06/21 02:21:07;;;;;;;22.17;19.77;;;20.50;99.90;;;;;;5041736;28;20090;-78
2023/06/21 02:23:32;;;;;;;18.83;16.83;;;20.40;99.90;;;;;;5035291;28;20131;-81
2023/06/21 02:25:58;;;;;;;21.75;19.40;;;20.20;99.90;;;;;;5030908;28;20119;-79
2023/06/21 02:28:24;;;;;;;22.30;19.95;;;20.30;99.90;;;;;;5066815;28;20076;-83
2023/06/21 02:30:49;;;;;;;24.27;21.63;;;20.10;99.90;;;;;;5029270;28;20139;-81
2023/06/21 02:33:15;;;;;;;24.65;22.00;;;20.40;99.90;;;;;;5038900;28;20043;-82
2023/06/21 02:35:41;;;;;;;24.33;21.67;;;20.60;99.90;;;;;;5039161;28;20040;-82
2023/06/21 02:38:07;;;;;;;24.45;21.08;;;20.60;99.90;;;;;;5016626;28;20123;-81
2023/06/21 02:40:32;;;;;;;24.33;21.65;;;20.20;99.90;;;;;;5087486;28;20679;-81
2023/06/21 02:42:58;;;;;;;26.98;23.40;;;19.90;99.90;;;;;;5034047;28;20059;-83
2023/06/21 02:45:24;;;;;;;24.30;21.75;;;20.30;99.90;;;;;;5025266;28;20420;-83
2023/06/21 02:47:50;;;;;;;26.55;23.63;;;19.90;99.90;;;;;;5051483;28;20904;-82
2023/06/21 02:50:18;;;;;;;28.30;25.30;;;20.50;99.90;;;;;;5032141;28;20083;-78
2023/06/21 02:52:44;;;;;;;29.08;25.20;;;19.80;99.90;;;;;;5083135;28;20610;-86
2023/06/21 02:55:10;;;;;;;28.65;25.42;;;19.90;99.90;;;;;;5036002;28;20083;-81
2023/06/21 02:57:36;;;;;;;31.70;26.17;;;19.90;99.90;;;;;;5020065;28;20045;-80
2023/06/21 03:00:17;;;;;;;29.23;25.60;;;19.70;99.90;;;;;;5023921;28;20044;-81
2023/06/21 03:02:44;;;;;;;26.27;23.40;;;20.40;99.90;;;;;;5044400;28;20047;-83
2023/06/21 03:05:12;;;;;;;30.67;25.60;;;20.10;99.90;;;;;;5041654;28;20044;-83
2023/06/21 03:07:43;;;;;;;28.52;25.02;;;20.00;99.90;;;;;;5065799;28;20052;-81
2023/06/21 03:15:33;;;;;;;29.98;26.70;;;19.80;99.90;;;;;;5043890;28;20045;-81
2023/06/21 03:17:58;;;;;;;30.67;26.95;;;19.80;99.90;;;;;;5023872;28;20070;-77
2023/06/21 03:20:26;;;;;;;29.65;26.52;;;20.00;99.90;;;;;;5059476;28;20511;-78
2023/06/21 03:22:52;;;;;;;32.72;27.98;;;19.90;99.90;;;;;;5031199;28;20056;-82
2023/06/21 03:25:18;;;;;;;39.10;30.30;;;19.90;99.90;;;;;;5029666;28;20044;-86
2023/06/21 03:27:43;;;;;;;36.55;31.17;;;19.80;99.90;;;;;;5040550;28;20072;-80
2023/06/21 03:30:11;;;;;;;34.38;30.08;;;20.00;99.90;;;;;;5013992;28;20439;-81
2023/06/21 03:32:46;;;;;;;34.72;30.42;;;20.20;99.90;;;;;;5041529;28;20033;-81
2023/06/21 03:35:18;;;;;;;32.90;29.40;;;20.20;99.90;;;;;;5035638;28;20047;-81
2023/06/21 03:37:46;;;;;;;40.05;32.70;;;19.90;99.90;;;;;;5021910;28;20564;-83
2023/06/21 03:40:13;;;;;;;37.65;32.40;;;19.60;99.90;;;;;;5030218;28;20044;-79
2023/06/21 03:42:39;;;;;;;35.33;30.35;;;20.00;99.90;;;;;;5045391;28;20044;-82
2023/06/21 03:45:07;;;;;;;34.85;31.08;;;19.70;99.90;;;;;;5022786;28;20052;-81
2023/06/21 03:47:34;;;;;;;36.83;31.50;;;20.10;99.90;;;;;;5003836;28;20036;-79
2023/06/21 03:50:00;;;;;;;33.35;29.15;;;19.80;99.90;;;;;;5042026;28;20099;-79
2023/06/21 03:52:25;;;;;;;37.33;30.23;;;19.60;99.90;;;;;;5045104;28;20048;-79
2023/06/21 03:54:52;;;;;;;33.53;29.80;;;20.20;99.90;;;;;;5037083;28;20045;-81
2023/06/21 03:57:18;;;;;;;35.22;30.77;;;20.20;99.90;;;;;;5030312;28;20043;-79
2023/06/21 03:59:44;;;;;;;35.22;30.60;;;20.00;99.90;;;;;;5030714;28;20408;-80
2023/06/21 04:02:09;;;;;;;34.65;29.40;;;20.20;99.90;;;;;;5048278;28;20041;-80
2023/06/21 04:04:35;;;;;;;35.85;31.77;;;20.20;99.90;;;;;;5035294;28;20547;-81
2023/06/21 04:07:01;;;;;;;35.45;30.17;;;19.80;99.90;;;;;;5020961;28;20487;-80
2023/06/21 04:09:26;;;;;;;34.03;30.30;;;20.10;99.90;;;;;;5055127;28;20048;-83
2023/06/21 04:11:52;;;;;;;33.55;29.88;;;19.80;99.90;;;;;;5042320;28;20040;-82
2023/06/21 04:14:18;;;;;;;38.05;31.25;;;19.70;99.90;;;;;;5018417;28;20064;-84
2023/06/21 04:16:44;;;;;;;40.15;33.72;;;19.70;99.90;;;;;;4999733;28;20060;-82
2023/06/21 04:19:10;;;;;;;35.95;30.42;;;19.90;99.90;;;;;;5066481;28;20032;-80
2023/06/21 04:21:36;;;;;;;37.03;31.35;;;20.40;99.90;;;;;;5019048;28;20079;-80
2023/06/21 04:24:01;;;;;;;40.10;31.80;;;20.20;99.90;;;;;;5035113;28;20056;-81
2023/06/21 04:26:28;;;;;;;34.28;29.50;;;19.90;99.90;;;;;;5034836;28;20041;-81
2023/06/21 04:28:54;;;;;;;39.33;30.55;;;20.30;99.90;;;;;;5017439;28;20049;-82
2023/06/21 04:31:20;;;;;;;34.22;30.30;;;19.70;99.90;;;;;;5021983;28;20049;-82
2023/06/21 04:33:46;;;;;;;36.63;31.00;;;20.10;99.90;;;;;;5022296;28;20037;-83
2023/06/21 04:36:17;;;;;;;39.85;31.48;;;20.10;99.90;;;;;;5071934;28;20048;-84
2023/06/21 04:38:48;;;;;;;40.33;33.28;;;19.80;99.90;;;;;;5042523;28;20049;-82
2023/06/21 04:41:18;;;;;;;38.97;31.95;;;20.20;99.90;;;;;;5029667;28;20075;-83
2023/06/21 04:43:43;;;;;;;37.33;32.08;;;19.80;99.90;;;;;;5035951;28;20049;-83
2023/06/21 04:46:09;;;;;;;36.58;31.05;;;19.90;99.90;;;;;;5015268;28;20441;-79
2023/06/21 04:48:36;;;;;;;38.72;32.75;;;20.50;99.90;;;;;;5032578;28;20078;-84
2023/06/21 04:51:02;;;;;;;39.60;32.95;;;20.20;99.90;;;;;;5020313;28;20040;-82
2023/06/21 04:53:30;;;;;;;37.47;31.08;;;20.20;99.90;;;;;;5027862;28;20048;-84
2023/06/21 04:55:57;;;;;;;36.75;30.55;;;20.00;99.90;;;;;;5026897;28;20454;-81
2023/06/21 04:58:26;;;;;;;37.60;31.27;;;20.00;99.90;;;;;;5008923;28;20534;-84
2023/06/21 05:00:52;;;;;;;37.70;30.23;;;20.60;99.90;;;;;;5025988;28;20068;-84
2023/06/21 05:03:18;;;;;;;36.28;30.70;;;20.40;99.90;;;;;;5051763;28;20073;-86
2023/06/21 05:05:44;;;;;;;38.35;30.05;;;20.60;99.90;;;;;;5019652;28;20072;-84
2023/06/21 05:08:09;;;;;;;31.48;26.25;;;20.30;99.90;;;;;;5018510;28;20072;-82
2023/06/21 05:10:35;;;;;;;33.35;28.27;;;20.00;99.90;;;;;;5018240;28;20072;-81
2023/06/21 05:13:01;;;;;;;31.00;25.77;;;20.70;99.90;;;;;;5036461;28;20033;-85
2023/06/21 05:15:27;;;;;;;29.90;24.33;;;20.70;99.90;;;;;;5003597;28;20149;-86
2023/06/21 05:17:53;;;;;;;30.95;25.42;;;20.20;99.90;;;;;;5018325;28;20523;-82
2023/06/21 05:20:20;;;;;;;31.77;25.65;;;20.70;99.90;;;;;;5002382;28;20064;-82
2023/06/21 05:22:48;;;;;;;32.03;25.95;;;20.50;99.90;;;;;;5053320;28;20080;-86
2023/06/21 05:25:14;;;;;;;27.95;24.15;;;20.20;99.90;;;;;;5034205;28;20080;-80
2023/06/21 05:27:40;;;;;;;29.08;23.35;;;20.20;99.90;;;;;;5067993;28;20080;-83
2023/06/21 05:30:06;;;;;;;31.23;24.52;;;20.10;99.90;;;;;;5060167;28;20072;-82
2023/06/21 05:32:32;;;;;;;27.08;22.45;;;20.30;99.90;;;;;;5018917;28;20119;-83
2023/06/21 05:34:58;;;;;;;28.30;22.05;;;20.20;99.90;;;;;;5033674;28;20140;-85
2023/06/21 05:37:23;;;;;;;27.60;21.48;;;20.40;99.90;;;;;;5032750;28;20132;-80
2023/06/21 05:39:50;;;;;;;25.08;19.85;;;20.70;99.90;;;;;;5053686;28;20041;-81
2023/06/21 05:42:16;;;;;;;24.23;20.08;;;20.50;99.90;;;;;;5030973;28;20125;-85
2023/06/21 05:44:42;;;;;;;25.20;18.65;;;20.70;99.90;;;;;;5053745;28;20123;-83
2023/06/21 05:47:07;;;;;;;23.60;18.95;;;20.30;99.90;;;;;;5071133;28;20144;-79
2023/06/21 05:49:33;;;;;;;22.98;18.80;;;20.40;99.90;;;;;;5055467;28;20488;-83
2023/06/21 05:51:59;;;;;;;22.98;18.58;;;20.40;99.90;;;;;;5036997;28;20047;-79
2023/06/21 05:54:25;;;;;;;21.05;17.73;;;20.80;99.90;;;;;;5035536;28;20128;-80
2023/06/21 05:56:52;;;;;;;23.98;17.98;;;20.60;99.90;;;;;;5051039;28;20074;-83
2023/06/21 05:59:18;;;;;;;21.83;17.42;;;20.60;99.90;;;;;;5045738;28;20041;-85
2023/06/21 06:01:43;;;;;;;20.55;16.73;;;20.90;99.90;;;;;;5042868;28;20037;-80
2023/06/21 06:04:09;;;;;;;20.25;16.80;;;21.00;99.90;;;;;;5033146;28;20056;-79
2023/06/21 06:06:39;;;;;;;22.67;16.33;;;20.80;99.90;;;;;;5031858;28;20055;-80
2023/06/21 06:09:07;;;;;;;21.63;17.10;;;20.60;99.90;;;;;;5032628;28;20048;-82
2023/06/21 06:11:33;;;;;;;19.90;15.35;;;20.90;99.90;;;;;;5014866;28;20041;-86
2023/06/21 06:13:59;;;;;;;19.02;14.80;;;21.00;99.90;;;;;;4997304;28;20079;-80
2023/06/21 06:16:25;;;;;;;18.75;14.93;;;20.80;99.90;;;;;;5039149;28;20045;-82
2023/06/21 06:18:50;;;;;;;20.60;15.00;;;20.50;99.90;;;;;;5016136;28;20045;-85
2023/06/21 06:21:21;;;;;;;18.70;14.20;;;20.50;99.90;;;;;;5012069;28;20030;-77
2023/06/21 06:23:48;;;;;;;18.70;13.23;;;20.90;99.90;;;;;;5050285;28;20699;-79
2023/06/21 06:26:14;;;;;;;17.65;13.98;;;20.60;99.90;;;;;;5063229;28;20040;-83
2023/06/21 06:28:39;;;;;;;17.67;13.65;;;20.80;99.90;;;;;;5043077;28;20055;-77
2023/06/21 06:31:05;;;;;;;16.45;13.25;;;20.60;99.90;;;;;;5052443;28;20404;-83
2023/06/21 06:33:31;;;;;;;14.02;12.40;;;21.00;99.90;;;;;;5049413;28;20362;-78
2023/06/21 06:35:56;;;;;;;15.80;13.07;;;21.00;99.90;;;;;;5010354;28;20354;-76
2023/06/21 06:38:22;;;;;;;14.98;13.00;;;20.90;99.90;;;;;;5048261;28;20384;-78
2023/06/21 06:40:48;;;;;;;17.70;12.90;;;21.40;99.90;;;;;;5032069;28;20715;-76
2023/06/21 06:43:13;;;;;;;14.52;13.07;;;21.30;99.90;;;;;;5012861;28;20123;-76
2023/06/21 06:45:39;;;;;;;13.95;11.93;;;21.30;99.90;;;;;;5048613;28;20041;-76
2023/06/21 06:48:05;;;;;;;15.23;12.43;;;21.30;99.90;;;;;;5031038;28;20025;-75
2023/06/21 06:50:30;;;;;;;16.63;12.40;;;21.70;99.90;;;;;;5048488;28;20144;-74
2023/06/21 06:52:56;;;;;;;13.07;11.68;;;21.30;99.90;;;;;;5030613;28;20063;-78
2023/06/21 06:55:22;;;;;;;14.20;12.18;;;21.40;99.90;;;;;;5027310;28;20559;-74
2023/06/21 06:57:48;;;;;;;12.07;10.85;;;21.70;99.90;;;;;;5028851;28;20060;-77
2023/06/21 07:00:15;;;;;;;14.00;11.93;;;22.20;99.90;;;;;;5047879;28;20045;-73
2023/06/21 07:02:40;;;;;;;15.77;10.65;;;22.00;99.90;;;;;;5048372;28;20432;-74
2023/06/21 07:05:06;;;;;;;12.48;10.93;;;22.10;99.90;;;;;;5031839;28;20080;-79
2023/06/21 07:07:32;;;;;;;14.23;11.18;;;22.10;99.90;;;;;;5046746;28;20111;-77
2023/06/21 07:09:58;;;;;;;11.95;10.40;;;22.50;99.90;;;;;;5031630;28;20060;-74
2023/06/21 07:12:23;;;;;;;15.93;10.98;;;22.50;99.90;;;;;;5028374;28;20045;-86
2023/06/21 07:14:49;;;;;;;11.32;10.13;;;22.60;99.90;;;;;;5030974;28;20059;-75
2023/06/21 07:17:15;;;;;;;11.43;9.48;;;22.50;99.90;;;;;;5028133;28;20076;-76
2023/06/21 07:19:41;;;;;;;9.80;8.75;;;22.70;99.90;;;;;;5047339;28;20377;-74
2023/06/21 07:22:07;;;;;;;11.68;10.10;;;22.60;99.90;;;;;;5025271;28;20542;-75
2023/06/21 07:24:32;;;;;;;11.13;9.77;;;22.90;99.90;;;;;;5033688;28;20059;-74
2023/06/21 07:26:58;;;;;;;12.15;9.38;;;22.80;99.90;;;;;;5043875;28;20041;-77
2023/06/21 07:29:24;;;;;;;9.98;8.43;;;23.00;99.90;;;;;;5013632;28;20131;-77
2023/06/21 07:31:50;;;;;;;10.25;8.27;;;22.90;99.90;;;;;;5029049;28;20147;-76
2023/06/21 07:34:15;;;;;;;8.95;7.80;;;23.10;99.90;;;;;;5044313;28;20041;-75
2023/06/21 07:36:41;;;;;;;8.02;7.03;;;22.90;99.90;;;;;;5046113;28;20481;-76
2023/06/21 07:39:08;;;;;;;12.18;10.00;;;23.00;99.90;;;;;;5028069;28;20123;-76
2023/06/21 07:41:33;;;;;;;10.73;7.65;;;23.00;99.90;;;;;;5029503;28;20049;-76
2023/06/21 07:43:59;;;;;;;8.90;7.47;;;23.20;99.90;;;;;;5049667;28;20033;-77
2023/06/21 07:46:25;;;;;;;10.48;7.88;;;23.30;99.90;;;;;;5047006;28;20040;-77
2023/06/21 07:48:50;;;;;;;10.25;8.02;;;23.10;99.90;;;;;;5028510;28;20036;-81
2023/06/21 07:51:16;;;;;;;8.88;7.63;;;23.30;99.90;;;;;;5014068;28;20048;-78
2023/06/21 07:53:42;;;;;;;9.25;7.40;;;23.30;99.90;;;;;;5030580;28;20049;-73
2023/06/21 07:56:08;;;;;;;8.55;6.90;;;23.40;99.90;;;;;;5034521;28;20407;-77
2023/06/21 07:58:34;;;;;;;8.38;6.55;;;23.40;99.90;;;;;;5059812;28;20059;-76
2023/06/21 08:00:59;;;;;;;8.32;6.93;;;23.40;99.90;;;;;;5050187;28;20045;-82
2023/06/21 08:03:25;;;;;;;9.80;7.30;;;23.40;99.90;;;;;;5046435;28;20094;-82
2023/06/21 08:05:51;;;;;;;9.70;6.90;;;23.20;99.90;;;;;;5031685;28;20156;-76
2023/06/21 08:08:17;;;;;;;10.15;7.13;;;23.70;99.90;;;;;;5010214;28;20037;-76
2023/06/21 08:10:43;;;;;;;8.27;6.50;;;23.60;99.90;;;;;;5052515;28;20380;-78
2023/06/21 08:13:09;;;;;;;9.27;6.65;;;23.70;99.90;;;;;;5026102;28;20040;-77
2023/06/21 08:15:34;;;;;;;8.63;6.40;;;23.50;99.90;;;;;;5029644;28;20140;-79
2023/06/21 08:18:00;;;;;;;8.63;7.15;;;23.90;99.90;;;;;;5046197;28;20775;-78
2023/06/21 08:20:26;;;;;;;8.30;6.15;;;23.70;99.90;;;;;;5013486;28;20037;-78
2023/06/21 08:22:51;;;;;;;8.02;6.38;;;23.70;99.90;;;;;;5030262;28;20128;-81
2023/06/21 08:25:17;;;;;;;7.00;5.88;;;23.90;99.90;;;;;;5039947;28;20044;-76
2023/06/21 08:27:43;;;;;;;6.15;5.13;;;23.40;99.90;;;;;;5046965;28;20051;-79
2023/06/21 08:30:09;;;;;;;7.05;5.88;;;23.80;99.90;;;;;;5030469;28;20067;-78
2023/06/21 08:32:35;;;;;;;6.10;5.30;;;23.90;99.90;;;;;;5030226;28;20091;-81
2023/06/21 08:35:00;;;;;;;8.70;6.45;;;23.90;99.90;;;;;;5029592;28;20477;-78
2023/06/21 08:37:26;;;;;;;6.75;5.60;;;23.90;99.90;;;;;;5029977;28;20072;-77
2023/06/21 08:39:52;;;;;;;6.18;5.30;;;23.70;99.90;;;;;;5047178;28;20048;-78
2023/06/21 08:42:19;;;;;;;7.35;5.65;;;23.80;99.90;;;;;;5046902;28;20134;-80
2023/06/21 08:44:46;;;;;;;7.70;6.10;;;23.80;99.90;;;;;;5031487;28;20132;-78
2023/06/21 08:47:14;;;;;;;6.18;5.25;;;24.20;99.90;;;;;;5029982;28;20681;-79
2023/06/21 08:49:41;;;;;;;6.82;5.50;;;24.10;99.90;;;;;;5048791;28;20436;-78
2023/06/21 08:52:11;;;;;;;6.03;5.30;;;24.30;99.90;;;;;;5034240;28;20049;-79
2023/06/21 08:54:42;;;;;;;6.68;5.97;;;24.40;99.90;;;;;;5031682;28;20041;-79
2023/06/21 08:57:32;;;;;;;6.72;5.88;;;24.40;99.90;;;;;;5065603;28;20064;-79
2023/06/21 09:00:04;;;;;;;7.85;6.13;;;24.70;99.90;;;;;;5030535;28;20536;-79
2023/06/21 09:02:43;;;;;;;7.47;6.10;;;24.50;99.90;;;;;;5032922;28;20120;-78
2023/06/21 09:05:26;;;;;;;6.82;5.72;;;24.40;99.90;;;;;;5033564;28;20037;-79
2023/06/21 09:07:53;;;;;;;8.23;6.40;;;24.80;99.90;;;;;;5050317;28;20049;-78
2023/06/21 09:10:21;;;;;;;6.63;4.93;;;24.70;99.90;;;;;;5046945;28;20694;-80
2023/06/21 09:12:49;;;;;;;7.07;5.13;;;24.90;99.90;;;;;;5049926;28;20488;-80
2023/06/21 09:15:15;;;;;;;7.13;5.45;;;25.30;99.90;;;;;;5045531;28;20144;-81
2023/06/21 09:17:44;;;;;;;7.95;5.15;;;25.10;99.90;;;;;;5041967;28;20643;-79
2023/06/21 09:20:11;;;;;;;6.28;4.88;;;25.20;99.90;;;;;;5050004;28;20128;-79
2023/06/21 09:22:37;;;;;;;7.40;5.60;;;25.50;99.90;;;;;;5016663;28;20095;-77
2023/06/21 09:25:04;;;;;;;5.65;4.93;;;25.50;99.90;;;;;;5050249;28;20059;-79
2023/06/21 09:27:29;;;;;;;6.40;4.70;;;25.80;99.90;;;;;;5014771;28;20048;-78
2023/06/21 09:29:55;;;;;;;6.20;5.15;;;26.50;99.90;;;;;;5015481;28;20047;-79
2023/06/21 09:32:21;;;;;;;9.60;5.60;;;26.50;99.90;;;;;;5016548;28;20033;-81
2023/06/21 09:34:47;;;;;;;10.23;5.28;;;26.00;99.90;;;;;;5053085;28;20043;-77
2023/06/21 09:37:30;;;;;;;6.00;4.55;;;25.80;99.90;;;;;;5021816;28;20055;-77
2023/06/21 09:39:56;;;;;;;4.50;3.90;;;26.30;99.90;;;;;;5033595;28;20473;-79
2023/06/21 09:42:24;;;;;;;6.15;5.22;;;26.00;99.90;;;;;;5033261;28;20124;-79
2023/06/21 09:44:49;;;;;;;5.40;4.40;;;26.40;99.90;;;;;;5049105;28;20044;-79
2023/06/21 09:47:15;;;;;;;6.40;3.95;;;27.00;99.90;;;;;;5032393;28;20037;-78
2023/06/21 09:49:48;;;;;;;6.05;4.28;;;27.30;99.90;;;;;;5013737;28;20105;-80
2023/06/21 09:52:20;;;;;;;5.03;4.07;;;27.10;99.90;;;;;;5021098;28;20045;-81
2023/06/21 09:54:47;;;;;;;3.95;3.55;;;27.20;99.90;;;;;;5048944;28;20037;-78
2023/06/21 09:57:12;;;;;;;4.88;4.38;;;27.50;99.90;;;;;;5026817;28;20071;-78
2023/06/21 09:59:39;;;;;;;5.55;3.90;;;27.50;99.90;;;;;;5046939;28;20037;-79
2023/06/21 10:02:06;;;;;;;4.63;3.25;;;27.70;99.90;;;;;;5032080;28;20066;-79
2023/06/21 10:04:44;;;;;;;3.42;3.13;;;27.60;99.90;;;;;;5031774;28;20048;-81
2023/06/21 10:07:14;;;;;;;4.63;3.40;;;27.80;99.90;;;;;;5015288;28;20053;-77
2023/06/21 10:09:40;;;;;;;3.80;3.33;;;28.30;99.90;;;;;;5032128;28;20131;-78
2023/06/21 10:12:10;;;;;;;4.90;4.10;;;28.50;99.90;;;;;;5044343;28;20048;-77
2023/06/21 10:14:36;;;;;;;4.43;3.53;;;28.30;99.90;;;;;;5051485;28;20600;-79
2023/06/21 10:17:03;;;;;;;4.93;3.70;;;28.00;99.90;;;;;;5066549;28;20052;-79
2023/06/21 10:19:32;;;;;;;4.85;3.60;;;28.10;99.90;;;;;;5030154;28;20327;-79
2023/06/21 10:22:08;;;;;;;3.63;3.33;;;28.60;99.90;;;;;;5016599;28;20045;-77
2023/06/21 10:24:42;;;;;;;3.30;3.00;;;28.80;99.90;;;;;;5048497;28;20500;-79
2023/06/21 10:27:10;;;;;;;5.00;3.65;;;28.30;99.90;;;;;;5048682;28;20045;-78
2023/06/21 10:29:38;;;;;;;3.55;3.25;;;28.80;99.90;;;;;;5041713;28;20041;-80
2023/06/21 10:32:05;;;;;;;3.95;3.35;;;28.40;99.90;;;;;;5039216;28;20037;-79
2023/06/21 10:34:55;;;;;;;3.58;3.28;;;28.30;99.90;;;;;;5012897;28;20043;-78
2023/06/21 10:37:50;;;;;;;3.60;3.30;;;28.40;99.90;;;;;;5032122;28;20045;-78
2023/06/21 10:40:17;;;;;;;4.13;2.95;;;27.80;99.90;;;;;;5024861;28;20083;-77
2023/06/21 10:42:44;;;;;;;3.28;2.88;;;27.30;99.90;;;;;;5047394;28;20037;-79
2023/06/21 10:45:11;;;;;;;3.28;2.92;;;27.10;99.90;;;;;;5046417;28;20075;-78
2023/06/21 10:47:38;;;;;;;4.15;3.17;;;27.20;99.90;;;;;;5042698;28;20044;-77
2023/06/21 10:50:06;;;;;;;3.42;3.05;;;27.40;99.90;;;;;;5051438;28;20045;-80
2023/06/21 10:52:33;;;;;;;2.95;2.50;;;27.30;99.90;;;;;;5030519;28;20087;-75
2023/06/21 10:55:00;;;;;;;3.28;2.97;;;27.40;99.90;;;;;;5028965;28;20067;-78
2023/06/21 10:57:28;;;;;;;3.50;3.20;;;27.60;99.90;;;;;;5030790;28;20051;-77
2023/06/21 11:00:00;;;;;;;2.85;2.50;;;28.20;99.90;;;;;;5047357;28;20033;-76
2023/06/21 11:02:27;;;;;;;5.90;3.20;;;28.50;99.90;;;;;;5033186;28;20037;-78
2023/06/21 11:05:12;;;;;;;3.28;2.90;;;27.70;99.90;;;;;;5043179;28;20037;-78
2023/06/21 11:07:38;;;;;;;3.80;3.40;;;27.40;99.90;;;;;;5029400;28;20091;-77
2023/06/21 11:10:05;;;;;;;4.00;3.47;;;27.10;99.90;;;;;;5018682;28;20044;-79
2023/06/21 11:12:34;;;;;;;4.32;3.47;;;27.70;99.90;;;;;;5013921;28;20047;-78
2023/06/21 11:15:00;;;;;;;3.85;3.22;;;27.90;99.90;;;;;;5027792;28;20420;-77
2023/06/21 11:17:26;;;;;;;3.80;2.72;;;27.40;99.90;;;;;;5030916;28;20060;-77
2023/06/21 11:19:53;;;;;;;4.03;3.13;;;27.60;99.90;;;;;;5047598;28;20123;-77
2023/06/21 11:22:24;;;;;;;3.80;3.40;;;27.20;99.90;;;;;;5029589;28;20032;-76
2023/06/21 11:24:58;;;;;;;4.30;3.22;;;27.10;99.90;;;;;;5049347;28;20037;-76
2023/06/21 11:27:25;;;;;;;3.40;2.97;;;27.10;99.90;;;;;;5035693;28;20690;-79
2023/06/21 11:30:09;;;;;;;3.80;3.08;;;27.10;99.90;;;;;;5050675;28;20449;-78
2023/06/21 11:32:36;;;;;;;4.15;3.10;;;27.20;99.90;;;;;;5047655;28;20048;-76
2023/06/21 11:35:08;;;;;;;2.55;2.35;;;26.90;99.90;;;;;;5034019;28;20033;-78
2023/06/21 11:37:40;;;;;;;2.95;2.65;;;26.90;99.90;;;;;;5051175;28;20043;-77
2023/06/21 11:40:25;;;;;;;3.30;2.70;;;27.30;99.90;;;;;;5025871;28;20049;-77
2023/06/21 11:42:52;;;;;;;3.38;3.00;;;27.10;99.90;;;;;;5039229;28;20037;-76
2023/06/21 11:45:32;;;;;;;5.68;2.83;;;27.20;99.90;;;;;;5029512;28;20063;-76
2023/06/21 11:48:12;;;;;;;3.15;2.85;;;27.20;99.90;;;;;;5056668;28;20041;-77
2023/06/21 11:50:47;;;;;;;4.18;3.35;;;27.40;99.90;;;;;;5036024;28;20045;-77
2023/06/21 11:53:18;;;;;;;3.42;2.85;;;27.70;99.90;;;;;;5046750;28;20078;-77
2023/06/21 11:55:48;;;;;;;;;;;27.70;99.90;;;;;;5045322;28;20353;-76
2023/06/21 11:58:15;;;;;;;3.10;2.50;;;28.50;99.90;;;;;;5051926;28;20405;-76
2023/06/21 12:00:41;;;;;;;3.13;2.47;;;28.50;99.90;;;;;;5049104;28;20384;-77
2023/06/21 12:03:09;;;;;;;4.75;2.53;;;28.70;98.20;;;;;;5029959;28;20045;-78
2023/06/21 12:05:50;;;;;;;3.17;2.55;;;28.90;97.80;;;;;;5028264;28;21061;-77
2023/06/21 12:08:17;;;;;;;3.03;2.47;;;29.30;99.90;;;;;;5028975;28;20116;-80
2023/06/21 12:10:44;;;;;;;7.88;2.92;;;29.50;99.90;;;;;;5046484;28;20069;-78
2023/06/21 12:13:16;;;;;;;3.97;2.50;;;29.60;99.90;;;;;;5046906;28;20954;-77
2023/06/21 12:16:02;;;;;;;4.72;2.45;;;29.80;99.90;;;;;;5034138;28;20044;-77
2023/06/21 12:18:30;;;;;;;4.35;2.80;;;29.50;99.90;;;;;;5010758;28;20049;-77
2023/06/21 12:20:58;;;;;;;2.63;2.40;;;29.10;99.90;;;;;;5026826;28;20046;-79
2023/06/21 12:23:28;;;;;;;3.30;2.30;;;29.60;77.10;;;;;;5043703;28;20076;-79
2023/06/21 12:26:03;;;;;;;5.07;2.70;;;29.50;1.00;;;;;;5034119;28;20038;-78
2023/06/21 12:28:30;;;;;;;2.88;2.20;;;29.00;99.90;;;;;;5051322;28;20124;-78
2023/06/21 12:30:57;;;;;;;4.30;2.30;;;29.50;99.90;;;;;;5031710;28;20043;-79
2023/06/21 12:33:26;;;;;;;3.00;2.65;;;29.10;99.90;;;;;;5033553;28;20075;-78
2023/06/21 12:35:53;;;;;;;3.47;2.90;;;29.30;99.90;;;;;;5050078;28;20060;-79
2023/06/21 12:38:19;;;;;;;3.55;2.40;;;29.80;1.00;;;;;;5019798;28;20036;-77
2023/06/21 12:40:57;;;;;;;2.63;2.20;;;29.50;99.90;;;;;;5032783;28;20125;-79
2023/06/21 12:43:36;;;;;;;3.92;2.67;;;29.20;1.00;;;;;;5054721;28;20029;-78
2023/06/21 12:46:05;;;;;;;3.78;2.78;;;28.80;99.90;;;;;;5032086;28;20040;-77